Time;durP1;ratioP1;P1;durP2;ratioP2;P2;SDS_P1;SDS_P2;PMS_P1;PMS_P2;Temp;Humidity;BMP_temperature;BMP_pressure;BME280_temperature;BME280_humidity;BME280_pressure;Samples;Min_cycle;Max_cycle;Signal;HPM_P1;HPM_P2
2023/06/18 00:01:42;;;;;;;13.93;12.60;;;19.20;99.90;;;;;;6189734;23;20431;-78
2023/06/18 00:04:15;;;;;;;13.80;12.40;;;19.20;99.90;;;;;;6190434;23;20449;-77
2023/06/18 00:06:46;;;;;;;13.60;12.40;;;19.10;99.90;;;;;;6192013;23;20853;-77
2023/06/18 00:09:26;;;;;;;14.50;13.23;;;19.10;99.90;;;;;;6190910;23;20429;-77
2023/06/18 00:12:02;;;;;;;14.03;12.83;;;19.00;99.90;;;;;;6191431;23;20927;-76
2023/06/18 00:14:37;;;;;;;13.93;12.70;;;19.00;99.90;;;;;;6191780;23;20398;-77
2023/06/18 00:17:07;;;;;;;13.60;12.40;;;19.00;99.90;;;;;;6190854;23;20404;-77
2023/06/18 00:19:36;;;;;;;12.83;11.67;;;18.90;99.90;;;;;;6190365;23;20410;-77
2023/06/18 00:22:26;;;;;;;13.27;12.13;;;18.90;99.90;;;;;;6191195;23;20488;-77
2023/06/18 00:24:56;;;;;;;14.23;12.80;;;18.90;99.90;;;;;;6191831;23;20451;-77
2023/06/18 00:27:25;;;;;;;13.20;12.17;;;18.80;99.90;;;;;;6189977;23;20612;-77
2023/06/18 00:30:06;;;;;;;14.10;12.97;;;18.70;99.90;;;;;;6189403;23;20506;-77
2023/06/18 00:32:37;;;;;;;13.50;12.40;;;18.70;99.90;;;;;;6190077;23;20880;-78
2023/06/18 00:35:10;;;;;;;14.50;13.23;;;18.70;99.90;;;;;;6192308;23;20437;-77
2023/06/18 00:37:39;;;;;;;13.13;11.83;;;18.60;99.90;;;;;;6192308;23;20418;-78
2023/06/18 00:40:15;;;;;;;13.97;12.67;;;18.60;99.90;;;;;;6192013;23;20421;-77
2023/06/18 00:42:48;;;;;;;13.77;12.47;;;18.50;99.90;;;;;;6191717;23;20433;-77
2023/06/18 00:45:29;;;;;;;12.70;11.60;;;18.50;99.90;;;;;;6190308;23;20851;-77
2023/06/18 00:48:00;;;;;;;13.97;12.87;;;18.50;99.90;;;;;;6189956;23;20399;-77
2023/06/18 00:50:35;;;;;;;13.17;11.97;;;18.40;99.90;;;;;;6192108;23;20422;-77
2023/06/18 00:53:04;;;;;;;13.90;12.70;;;18.40;99.90;;;;;;6191643;23;20525;-76
2023/06/18 00:55:41;;;;;;;13.60;12.33;;;18.30;99.90;;;;;;6191619;23;20411;-77
2023/06/18 00:58:15;;;;;;;13.93;12.30;;;18.30;99.90;;;;;;6191452;23;20791;-77
2023/06/18 01:00:43;;;;;;;14.57;12.30;;;18.30;99.90;;;;;;6192830;23;20507;-77
2023/06/18 01:03:18;;;;;;;13.60;12.50;;;18.20;99.90;;;;;;6191590;23;20457;-77
2023/06/18 01:05:49;;;;;;;13.20;12.03;;;18.20;99.90;;;;;;6191461;23;20405;-78
2023/06/18 01:08:17;;;;;;;12.80;11.57;;;18.20;99.90;;;;;;6191480;23;20423;-78
2023/06/18 01:10:47;;;;;;;14.70;13.27;;;18.10;99.90;;;;;;6191588;23;20425;-77
2023/06/18 01:13:21;;;;;;;13.70;12.57;;;18.10;99.90;;;;;;6191475;23;20421;-78
2023/06/18 01:15:48;;;;;;;13.10;12.00;;;18.00;99.90;;;;;;6193952;23;20429;-77
2023/06/18 01:18:19;;;;;;;14.23;12.80;;;18.00;99.90;;;;;;6192939;23;20414;-78
2023/06/18 01:20:49;;;;;;;12.90;11.90;;;18.00;99.90;;;;;;6193560;23;20415;-77
2023/06/18 01:23:25;;;;;;;14.50;13.00;;;18.00;99.90;;;;;;6191241;23;20466;-77
2023/06/18 01:26:11;;;;;;;13.50;12.27;;;17.90;99.90;;;;;;6191788;23;20416;-78
2023/06/18 01:28:42;;;;;;;12.83;11.73;;;17.90;99.90;;;;;;6193956;23;20401;-77
2023/06/18 01:31:16;;;;;;;13.33;12.13;;;17.80;99.90;;;;;;6192736;23;20383;-77
2023/06/18 01:33:55;;;;;;;14.07;12.87;;;17.80;99.90;;;;;;6189920;23;20422;-77
2023/06/18 01:36:47;;;;;;;13.90;12.57;;;17.80;99.90;;;;;;6189504;23;20421;-78
2023/06/18 01:39:33;;;;;;;14.73;11.73;;;17.70;99.90;;;;;;6189960;23;20418;-78
2023/06/18 01:42:10;;;;;;;15.00;13.63;;;17.70;99.90;;;;;;6189466;23;20497;-77
2023/06/18 01:44:55;;;;;;;14.40;12.90;;;17.60;99.90;;;;;;6188535;23;20517;-77
2023/06/18 01:47:29;;;;;;;13.63;12.23;;;17.60;99.90;;;;;;6187841;23;20927;-77
2023/06/18 01:50:10;;;;;;;14.50;13.00;;;17.60;99.90;;;;;;6188126;23;20402;-77
2023/06/18 01:53:21;;;;;;;13.97;12.57;;;17.60;99.90;;;;;;6188699;23;20441;-77
2023/06/18 01:58:59;;;;;;;14.13;12.67;;;17.50;99.90;;;;;;6189540;23;20397;-77
2023/06/18 02:04:31;;;;;;;23.70;21.27;;;17.40;99.90;;;;;;6187498;23;20462;-77
2023/06/18 02:07:25;;;;;;;21.80;19.53;;;17.60;99.90;;;;;;6190317;23;20394;-77
2023/06/18 02:10:25;;;;;;;15.20;13.90;;;17.60;99.90;;;;;;6190622;23;20438;-77
2023/06/18 02:13:04;;;;;;;14.60;12.70;;;17.40;99.90;;;;;;6181332;23;20505;-77
2023/06/18 02:16:11;;;;;;;17.73;13.17;;;17.30;99.90;;;;;;6192219;23;20430;-77
2023/06/18 02:18:45;;;;;;;14.73;13.20;;;17.30;99.90;;;;;;6128321;23;20445;-77
2023/06/18 02:21:21;;;;;;;13.80;12.57;;;17.30;99.90;;;;;;6178768;23;20424;-77
2023/06/18 02:23:57;;;;;;;13.90;12.43;;;17.30;99.90;;;;;;6188203;23;20457;-77
2023/06/18 02:26:31;;;;;;;14.13;12.73;;;17.20;99.90;;;;;;6190402;23;20387;-77
2023/06/18 02:29:09;;;;;;;13.73;12.13;;;17.20;99.90;;;;;;6189885;23;20800;-77
2023/06/18 02:31:45;;;;;;;13.63;12.13;;;17.10;99.90;;;;;;6190611;23;20402;-78
2023/06/18 02:34:19;;;;;;;14.60;13.20;;;17.10;99.90;;;;;;6189527;23;20417;-77
2023/06/18 02:36:58;;;;;;;14.60;13.00;;;17.00;99.90;;;;;;6188752;23;20418;-77
2023/06/18 02:39:31;;;;;;;14.33;12.93;;;16.90;99.90;;;;;;6187216;23;20464;-78
2023/06/18 02:42:23;;;;;;;14.00;12.57;;;16.70;99.90;;;;;;6192460;23;20438;-77
2023/06/18 02:44:54;;;;;;;14.67;13.20;;;16.80;99.90;;;;;;6194236;23;20434;-77
2023/06/18 02:47:35;;;;;;;14.37;13.00;;;16.70;99.90;;;;;;6194172;23;20406;-77
2023/06/18 02:50:11;;;;;;;14.67;13.27;;;16.70;99.90;;;;;;6195209;23;20393;-77
2023/06/18 02:52:56;;;;;;;14.23;12.83;;;16.70;99.90;;;;;;6195518;23;20449;-77
2023/06/18 02:55:31;;;;;;;14.03;12.67;;;16.80;99.90;;;;;;6196514;23;20839;-77
2023/06/18 03:00:48;;;;;;;13.67;12.47;;;16.80;99.90;;;;;;6185792;23;20398;-77
2023/06/18 03:03:24;;;;;;;13.70;12.53;;;16.80;99.90;;;;;;6192321;23;20430;-77
2023/06/18 03:05:58;;;;;;;14.37;12.97;;;16.80;99.90;;;;;;6195657;23;20444;-77
2023/06/18 03:08:39;;;;;;;15.50;13.87;;;16.80;99.90;;;;;;6197087;23;20386;-77
2023/06/18 03:11:12;;;;;;;13.87;12.47;;;16.50;99.90;;;;;;6200454;23;20446;-77
2023/06/18 03:13:50;;;;;;;13.67;12.47;;;16.70;99.90;;;;;;6199020;23;20457;-77
2023/06/18 03:16:41;;;;;;;13.93;12.63;;;16.60;99.90;;;;;;6199344;23;20413;-77
2023/06/18 03:22:14;;;;;;;14.00;12.60;;;16.60;99.90;;;;;;6201039;23;20438;-77
2023/06/18 03:24:43;;;;;;;15.10;13.70;;;16.60;99.90;;;;;;6200854;23;20429;-77
2023/06/18 03:27:19;;;;;;;14.27;12.97;;;16.50;99.90;;;;;;6201507;23;20434;-77
2023/06/18 03:29:55;;;;;;;14.60;13.03;;;16.50;99.90;;;;;;6201442;23;20419;-78
2023/06/18 03:32:31;;;;;;;14.97;13.50;;;16.50;99.90;;;;;;6200827;23;20420;-78
2023/06/18 03:35:06;;;;;;;14.90;13.50;;;16.50;99.90;;;;;;6201750;23;20410;-78
2023/06/18 03:37:41;;;;;;;15.60;13.63;;;16.50;99.90;;;;;;6202410;23;20399;-77
2023/06/18 03:40:13;;;;;;;14.70;13.23;;;16.50;99.90;;;;;;6203013;23;20404;-78
2023/06/18 03:42:43;;;;;;;14.40;13.00;;;16.50;99.90;;;;;;6201046;23;20456;-77
2023/06/18 03:45:27;;;;;;;14.67;13.47;;;16.50;99.90;;;;;;6202696;23;20422;-77
2023/06/18 03:48:02;;;;;;;18.57;12.90;;;16.50;99.90;;;;;;6201833;23;20433;-78
2023/06/18 03:50:38;;;;;;;14.13;12.80;;;16.40;99.90;;;;;;6201370;23;20441;-78
2023/06/18 03:53:14;;;;;;;14.60;13.07;;;16.40;99.90;;;;;;6202388;23;20453;-78
2023/06/18 03:55:47;;;;;;;13.40;12.20;;;16.50;99.90;;;;;;6203493;23;20528;-77
2023/06/18 03:58:31;;;;;;;13.63;12.10;;;16.50;99.90;;;;;;6203751;23;20426;-76
2023/06/18 04:01:20;;;;;;;12.50;11.40;;;16.00;99.90;;;;;;6201852;23;20414;-79
2023/06/18 04:04:11;;;;;;;14.23;12.83;;;16.40;99.90;;;;;;6201680;23;20522;-77
2023/06/18 04:07:32;;;;;;;12.87;11.77;;;16.40;99.90;;;;;;6199951;23;20473;-76
2023/06/18 04:16:24;;;;;;;13.37;12.27;;;16.50;99.90;;;;;;6159407;23;20418;-77
2023/06/18 04:19:06;;;;;;;13.07;11.77;;;16.60;99.90;;;;;;6186930;23;20413;-77
2023/06/18 04:21:51;;;;;;;13.00;11.80;;;16.70;99.90;;;;;;6187149;23;20437;-77
2023/06/18 04:24:28;;;;;;;14.20;13.10;;;16.70;99.90;;;;;;6186987;23;20415;-76
2023/06/18 04:27:08;;;;;;;13.37;11.97;;;16.70;99.90;;;;;;6188125;23;20421;-77
2023/06/18 04:29:52;;;;;;;12.90;11.73;;;16.70;99.90;;;;;;6187568;23;20413;-77
2023/06/18 04:32:37;;;;;;;12.40;11.30;;;16.70;99.90;;;;;;6187890;23;20436;-77
2023/06/18 04:35:21;;;;;;;14.40;13.13;;;16.70;99.90;;;;;;6188146;23;20456;-78
2023/06/18 04:38:07;;;;;;;12.07;11.00;;;16.80;99.90;;;;;;6187468;23;20478;-78
2023/06/18 04:44:02;;;;;;;13.20;12.00;;;16.90;99.90;;;;;;6175080;23;20426;-78
2023/06/18 04:46:45;;;;;;;13.53;12.47;;;16.90;99.90;;;;;;6182307;23;20445;-78
2023/06/18 04:49:19;;;;;;;12.20;11.20;;;17.00;99.90;;;;;;6186725;23;20422;-78
2023/06/18 04:51:48;;;;;;;13.20;12.03;;;17.10;99.90;;;;;;6185814;23;20459;-77
2023/06/18 04:54:30;;;;;;;12.97;11.83;;;17.10;99.90;;;;;;6186180;23;20509;-77
2023/06/18 04:57:01;;;;;;;13.93;12.30;;;17.20;99.90;;;;;;6185920;23;20417;-78
2023/06/18 04:59:36;;;;;;;12.97;11.77;;;17.20;99.90;;;;;;6186096;23;20920;-79
2023/06/18 05:02:04;;;;;;;13.43;12.07;;;17.30;99.90;;;;;;6193008;23;20966;-78
2023/06/18 05:04:35;;;;;;;15.10;13.50;;;17.10;99.90;;;;;;6197315;23;20486;-79
2023/06/18 05:07:02;;;;;;;13.80;12.50;;;17.30;99.90;;;;;;6199433;23;20466;-79
2023/06/18 05:09:34;;;;;;;13.70;12.60;;;17.40;99.90;;;;;;6199555;23;20402;-78
2023/06/18 05:12:11;;;;;;;13.27;12.27;;;17.40;99.90;;;;;;6201109;23;20474;-79
2023/06/18 05:14:41;;;;;;;12.30;11.30;;;17.50;99.90;;;;;;6200123;23;20396;-79
2023/06/18 05:17:08;;;;;;;12.53;11.40;;;17.50;99.90;;;;;;6199198;23;21060;-78
2023/06/18 05:19:40;;;;;;;12.97;11.67;;;17.60;99.90;;;;;;6200683;23;20411;-77
2023/06/18 05:22:25;;;;;;;12.83;11.90;;;17.60;99.90;;;;;;6202306;23;20423;-77
2023/06/18 05:25:01;;;;;;;15.23;12.80;;;17.60;99.90;;;;;;6196751;23;20431;-77
2023/06/18 05:27:54;;;;;;;12.53;11.50;;;17.70;99.90;;;;;;6187989;23;20522;-77
2023/06/18 05:33:51;;;;;;;13.57;12.47;;;17.80;99.90;;;;;;6186883;23;20754;-78
2023/06/18 05:40:00;;;;;;;13.23;11.90;;;18.10;99.90;;;;;;6135308;23;20414;-79
2023/06/18 05:42:46;;;;;;;12.63;11.53;;;18.20;99.90;;;;;;6191089;23;20491;-78
2023/06/18 05:45:23;;;;;;;12.90;11.80;;;18.20;99.90;;;;;;6191714;23;20485;-77
2023/06/18 05:51:27;;;;;;;12.67;11.57;;;18.30;99.90;;;;;;6099404;23;20405;-77
2023/06/18 05:56:58;;;;;;;12.23;11.33;;;18.40;99.90;;;;;;6189961;23;20429;-78
2023/06/18 05:59:42;;;;;;;13.47;12.30;;;18.40;99.90;;;;;;6193802;23;20440;-79
2023/06/18 06:02:23;;;;;;;15.83;11.60;;;18.50;99.90;;;;;;6193517;23;20487;-77
2023/06/18 06:04:57;;;;;;;13.23;12.13;;;18.60;99.90;;;;;;6192427;23;20432;-78
2023/06/18 06:07:28;;;;;;;13.57;12.57;;;18.70;99.90;;;;;;6192717;23;20414;-78
2023/06/18 06:10:09;;;;;;;13.90;12.50;;;18.80;99.90;;;;;;6191429;23;20422;-78
2023/06/18 06:12:56;;;;;;;13.10;12.00;;;18.90;99.90;;;;;;6192052;23;20469;-77
2023/06/18 06:15:33;;;;;;;12.20;11.20;;;19.10;99.90;;;;;;6193956;23;20387;-78
2023/06/18 06:18:06;;;;;;;12.40;11.40;;;;;;;;;;6193614;23;20498;-78
2023/06/18 06:20:35;;;;;;;13.50;12.20;;;;;;;;;;6191707;23;20474;-78
2023/06/18 06:25:51;;;;;;;12.17;11.27;;;;;;;;;;6190152;23;20438;-77
2023/06/18 06:28:24;;;;;;;11.90;10.90;;;;;;;;;;6192179;23;20442;-77
2023/06/18 06:30:57;;;;;;;13.20;11.90;;;;;;;;;;6191749;23;20414;-76
2023/06/18 06:33:29;;;;;;;12.57;11.47;;;;;;;;;;6187932;23;20457;-78
2023/06/18 06:36:19;;;;;;;13.57;12.13;;;;;;;;;;6189395;23;20786;-77
2023/06/18 06:39:02;;;;;;;12.90;11.57;;;;;;;;;;6187927;23;20424;-77
2023/06/18 06:47:36;;;;;;;12.77;11.50;;;;;;;;;;6186591;23;20413;-78
2023/06/18 06:50:11;;;;;;;13.23;11.93;;;;;;;;;;6187777;23;20398;-80
2023/06/18 06:58:19;;;;;;;12.70;11.70;;;;;;;;;;6191146;23;20434;-79
2023/06/18 07:00:48;;;;;;;13.00;11.70;;;;;;;;;;6191834;23;20398;-79
2023/06/18 07:03:18;;;;;;;13.10;12.00;;;;;;;;;;6189455;23;21110;-77
2023/06/18 07:05:50;;;;;;;13.33;12.03;;;;;;;;;;6191515;23;20438;-78
2023/06/18 07:08:20;;;;;;;12.90;11.83;;;;;;;;;;6193231;23;20397;-77
2023/06/18 07:10:51;;;;;;;13.10;11.90;;;;;;;;;;6195959;23;20405;-77
2023/06/18 07:13:19;;;;;;;12.20;11.20;;;;;;;;;;6191976;23;20437;-78
2023/06/18 07:15:48;;;;;;;12.43;11.20;;;;;;;;;;6191312;23;20419;-78
2023/06/18 07:18:16;;;;;;;13.43;11.80;;;;;;;;;;6191619;23;20749;-75
2023/06/18 07:20:44;;;;;;;12.37;11.30;;;;;;;;;;6194168;23;20418;-78
2023/06/18 07:23:24;;;;;;;11.57;10.50;;;;;;;;;;6191111;23;20462;-79
2023/06/18 07:25:54;;;;;;;12.60;11.50;;;;;;;;;;6191169;23;20818;-76
2023/06/18 07:28:24;;;;;;;12.33;11.33;;;;;;;;;;6192249;23;20410;-77
2023/06/18 07:30:56;;;;;;;12.33;11.33;;;;;;;;;;6190075;23;20396;-78
2023/06/18 07:33:24;;;;;;;12.67;11.47;;;;;;;;;;6189058;23;20980;-77
2023/06/18 07:35:56;;;;;;;12.53;11.53;;;;;;;;;;6189053;23;20428;-79
2023/06/18 07:38:24;;;;;;;12.23;11.30;;;;;;;;;;6188698;23;20437;-76
2023/06/18 07:40:53;;;;;;;12.60;11.60;;;;;;;;;;6188693;23;20979;-77
2023/06/18 07:43:21;;;;;;;11.77;10.87;;;;;;;;;;6188298;23;20469;-77
2023/06/18 07:45:49;;;;;;;11.20;10.30;;;;;;;;;;6192055;23;20449;-79
2023/06/18 07:48:17;;;;;;;11.57;10.77;;;;;;;;;;6189752;23;20418;-76
2023/06/18 07:50:46;;;;;;;11.83;10.93;;;;;;;;;;6186560;23;20892;-78
2023/06/18 07:53:14;;;;;;;11.90;10.90;;;;;;;;;;6185675;23;20669;-76
2023/06/18 07:55:41;;;;;;;10.70;9.90;;;;;;;;;;6185609;23;20400;-77
2023/06/18 07:58:11;;;;;;;11.13;10.20;;;;;;;;;;6188278;23;20421;-78
2023/06/18 08:00:40;;;;;;;11.53;10.57;;;;;;;;;;6187699;23;20813;-78
2023/06/18 08:03:08;;;;;;;11.27;10.27;;;;;;;;;;6185173;23;20457;-76
2023/06/18 08:05:36;;;;;;;20.60;18.90;;;;;;;;;;6187060;23;20522;-78
2023/06/18 08:08:04;;;;;;;10.73;9.93;;;;;;;;;;6187194;23;20422;-76
2023/06/18 08:10:38;;;;;;;11.53;10.53;;;;;;;;;;6194956;23;20481;-75
2023/06/18 08:13:21;;;;;;;10.70;9.80;;;;;;;;;;6205303;23;20430;-77
2023/06/18 08:15:50;;;;;;;12.13;11.13;;;;;;;;;;6210640;23;20466;-76
2023/06/18 08:18:25;;;;;;;11.70;10.80;;;;;;;;;;6210531;23;20412;-76
2023/06/18 08:20:57;;;;;;;10.97;9.97;;;;;;;;;;6211012;23;20482;-78
2023/06/18 08:23:31;;;;;;;10.83;9.90;;;;;;;;;;6210659;23;20445;-78
2023/06/18 08:26:00;;;;;;;11.50;10.60;;;;;;;;;;6203368;23;20444;-76
2023/06/18 08:28:32;;;;;;;10.80;10.00;;;;;;;;;;6204871;23;20403;-76
2023/06/18 08:31:04;;;;;;;9.60;8.90;;;;;;;;;;6197035;23;20385;-76
2023/06/18 08:33:40;;;;;;;10.97;9.90;;;;;;;;;;6193680;23;20459;-78
2023/06/18 08:36:09;;;;;;;9.87;9.17;;;;;;;;;;6194414;23;20501;-76
2023/06/18 08:38:38;;;;;;;8.87;8.27;;;;;;;;;;6195195;23;20494;-77
2023/06/18 08:41:11;;;;;;;9.70;8.83;;;;;;;;;;6198596;23;20493;-76
2023/06/18 08:43:43;;;;;;;9.47;8.77;;;;;;;;;;6203238;23;20440;-78
2023/06/18 08:46:13;;;;;;;8.90;8.27;;;;;;;;;;6206393;23;20517;-78
2023/06/18 08:48:43;;;;;;;9.00;8.20;;;;;;;;;;6206194;23;20417;-77
2023/06/18 08:51:12;;;;;;;9.30;8.60;;;;;;;;;;6204862;23;20605;-77
2023/06/18 08:53:46;;;;;;;9.37;8.50;;;;;;;;;;6202252;23;20437;-77
2023/06/18 08:56:20;;;;;;;9.13;8.30;;;;;;;;;;6202865;23;20630;-77
2023/06/18 08:58:50;;;;;;;8.87;7.73;;;;;;;;;;6201113;23;20471;-79
2023/06/18 09:01:18;;;;;;;8.10;7.30;;;;;;;;;;6202797;23;20868;-76
2023/06/18 09:03:48;;;;;;;8.17;7.50;;;;;;;;;;6203004;23;20415;-77
2023/06/18 09:06:15;;;;;;;7.90;7.30;;;;;;;;;;6196481;23;20438;-78
2023/06/18 09:08:46;;;;;;;7.33;6.70;;;;;;;;;;6197024;23;20472;-77
2023/06/18 09:11:19;;;;;;;7.83;7.33;;;;;;;;;;6197458;23;20431;-79
2023/06/18 09:13:56;;;;;;;7.23;6.53;;;;;;;;;;6197689;23;20425;-77
2023/06/18 09:16:24;;;;;;;6.60;5.97;;;;;;;;;;6200299;23;20393;-77
2023/06/18 09:18:51;;;;;;;7.00;6.43;;;;;;;;;;6197650;23;20418;-79
2023/06/18 09:21:46;;;;;;;8.07;7.47;;;;;;;;;;6197496;23;20410;-77
2023/06/18 09:24:17;;;;;;;7.30;6.70;;;;;;;;;;6197506;23;20426;-77
2023/06/18 09:26:45;;;;;;;8.90;7.73;;;;;;;;;;6198593;23;20519;-77
2023/06/18 09:29:14;;;;;;;8.20;7.60;;;;;;;;;;6201357;23;20411;-78
2023/06/18 09:31:44;;;;;;;8.33;7.53;;;;;;;;;;6200542;23;20451;-76
2023/06/18 09:34:15;;;;;;;7.87;7.37;;;;;;;;;;6200286;23;20403;-76
2023/06/18 09:36:49;;;;;;;7.73;7.10;;;;;;;;;;6199396;23;20407;-77
2023/06/18 09:39:18;;;;;;;7.40;6.90;;;;;;;;;;6198621;23;20718;-77
2023/06/18 09:41:47;;;;;;;8.40;7.70;;;;;;;;;;6201307;23;20438;-77
2023/06/18 09:44:17;;;;;;;7.00;6.40;;;;;;;;;;6199777;23;20491;-78
2023/06/18 09:46:46;;;;;;;7.60;7.00;;;;;;;;;;6201060;23;20968;-78
2023/06/18 09:49:15;;;;;;;7.23;6.73;;;;;;;;;;6200505;23;20408;-77
2023/06/18 09:51:43;;;;;;;7.50;6.90;;;;;;;;;;6199970;23;20438;-77
2023/06/18 09:54:12;;;;;;;8.00;6.73;;;;;;;;;;6199705;23;20418;-77
2023/06/18 09:56:45;;;;;;;6.83;6.23;;;;;;;;;;6198449;23;20455;-78
2023/06/18 09:59:23;;;;;;;7.30;6.60;;;;;;;;;;6200323;23;20431;-77
2023/06/18 10:01:51;;;;;;;7.90;7.27;;;;;;;;;;6192726;23;20418;-80
2023/06/18 10:04:20;;;;;;;6.83;6.33;;;;;;;;;;6193738;23;20396;-76
2023/06/18 10:06:51;;;;;;;7.40;6.80;;;;;;;;;;6192554;23;20462;-77
2023/06/18 10:09:20;;;;;;;7.00;6.30;;;;;;;;;;6192402;23;20413;-78
2023/06/18 10:11:51;;;;;;;7.07;6.40;;;;;;;;;;6193252;23;20492;-77
2023/06/18 10:14:24;;;;;;;7.57;6.50;;;;;;;;;;6192340;23;20445;-77
2023/06/18 10:16:53;;;;;;;7.07;6.47;;;;;;;;;;6192137;23;20579;-79
2023/06/18 10:19:25;;;;;;;6.97;6.27;;;;;;;;;;6194005;23;20425;-78
2023/06/18 10:21:58;;;;;;;5.83;5.53;;;;;;;;;;6192347;23;20485;-80
2023/06/18 10:24:30;;;;;;;6.50;5.90;;;;;;;;;;6190199;23;20450;-78
2023/06/18 10:26:58;;;;;;;6.67;6.07;;;32.50;50.50;;;;;;6190863;23;20434;-77
2023/06/18 10:29:33;;;;;;;6.40;6.00;;;32.50;50.70;;;;;;6190093;23;20458;-78
2023/06/18 10:32:05;;;;;;;6.37;5.90;;;32.60;50.70;;;;;;6191987;23;20516;-80
2023/06/18 10:34:34;;;;;;;6.70;6.23;;;32.80;49.60;;;;;;6191919;23;20754;-79
2023/06/18 10:37:03;;;;;;;6.40;6.00;;;32.60;49.30;;;;;;6191462;23;20979;-78
2023/06/18 10:39:31;;;;;;;6.20;5.80;;;32.50;49.50;;;;;;6192941;23;20426;-79
2023/06/18 10:42:13;;;;;;;6.50;6.00;;;32.50;49.50;;;;;;6193412;23;20415;-80
2023/06/18 10:44:57;;;;;;;6.50;6.00;;;32.70;48.90;;;;;;6193342;23;20468;-80
2023/06/18 10:47:26;;;;;;;6.50;6.10;;;32.90;48.40;;;;;;6194588;23;20464;-79
2023/06/18 10:50:17;;;;;;;6.37;5.93;;;32.90;47.40;;;;;;6197080;23;20415;-77
2023/06/18 10:52:46;;;;;;;6.00;5.50;;;32.40;48.90;;;;;;6190504;23;20435;-79
2023/06/18 10:55:16;;;;;;;6.40;6.00;;;32.50;48.60;;;;;;6187618;23;20411;-80
2023/06/18 10:57:45;;;;;;;6.40;5.90;;;32.40;48.70;;;;;;6190275;23;20407;-78
2023/06/18 11:00:25;;;;;;;5.93;5.53;;;32.80;48.20;;;;;;6186794;23;20415;-77
2023/06/18 11:03:00;;;;;;;6.23;5.73;;;33.30;47.40;;;;;;6186533;23;20423;-79
2023/06/18 11:05:49;;;;;;;6.23;5.83;;;33.60;47.30;;;;;;6186024;23;20908;-78
2023/06/18 11:08:18;;;;;;;6.10;5.70;;;33.70;46.20;;;;;;6187485;23;20435;-80
2023/06/18 11:10:48;;;;;;;5.80;5.40;;;33.50;46.00;;;;;;6186503;23;20424;-79
2023/06/18 11:13:16;;;;;;;6.30;5.90;;;33.60;46.20;;;;;;6186118;23;20443;-79
2023/06/18 11:15:59;;;;;;;6.63;6.13;;;33.70;46.30;;;;;;6185217;23;20415;-79
2023/06/18 11:18:28;;;;;;;6.37;5.77;;;33.90;46.00;;;;;;6186362;23;20396;-78
2023/06/18 11:20:56;;;;;;;6.47;5.97;;;33.90;46.00;;;;;;6185647;23;20461;-77
2023/06/18 11:23:25;;;;;;;6.50;6.10;;;33.60;46.30;;;;;;6184916;23;20439;-79
2023/06/18 11:25:54;;;;;;;6.80;6.10;;;33.60;46.80;;;;;;6185551;23;20415;-80
2023/06/18 11:28:23;;;;;;;6.73;6.13;;;34.10;46.10;;;;;;6186940;23;20470;-78
2023/06/18 11:30:57;;;;;;;6.07;5.67;;;34.30;44.10;;;;;;6187276;23;20447;-77
2023/06/18 11:33:26;;;;;;;5.60;5.30;;;34.30;44.30;;;;;;6186527;23;20435;-80
2023/06/18 11:35:55;;;;;;;6.30;5.80;;;34.40;44.70;;;;;;6190999;23;21059;-78
2023/06/18 11:38:25;;;;;;;6.60;6.00;;;34.60;44.80;;;;;;6193994;23;20900;-77
2023/06/18 11:40:53;;;;;;;6.10;5.60;;;34.50;44.00;;;;;;6192971;23;20439;-78
2023/06/18 11:43:21;;;;;;;7.40;6.63;;;34.40;44.50;;;;;;6194619;23;20503;-78
2023/06/18 11:45:49;;;;;;;5.90;5.40;;;34.60;44.00;;;;;;6192005;23;20424;-79
2023/06/18 11:48:21;;;;;;;6.13;5.70;;;33.80;42.90;;;;;;6192156;23;20427;-80
2023/06/18 11:50:53;;;;;;;6.77;6.27;;;32.90;44.70;;;;;;6191719;23;20415;-78
2023/06/18 11:53:21;;;;;;;6.50;6.00;;;32.70;45.10;;;;;;6192251;23;20442;-78
2023/06/18 11:55:54;;;;;;;6.20;5.73;;;32.80;45.80;;;;;;6189737;23;20411;-79
2023/06/18 11:58:22;;;;;;;6.43;5.93;;;33.50;45.90;;;;;;6187748;23;20427;-79
2023/06/18 12:00:52;;;;;;;6.40;5.90;;;33.50;44.70;;;;;;6187583;23;20415;-78
2023/06/18 12:03:25;;;;;;;5.97;5.57;;;34.00;44.20;;;;;;6187535;23;20444;-77
2023/06/18 12:05:56;;;;;;;6.10;5.70;;;34.40;43.40;;;;;;6188124;23;20466;-77
2023/06/18 12:08:27;;;;;;;7.50;5.43;;;34.50;43.20;;;;;;6188030;23;20427;-77
2023/06/18 12:10:58;;;;;;;5.90;5.50;;;34.70;42.70;;;;;;6187969;23;20368;-77
2023/06/18 12:13:38;;;;;;;5.80;5.37;;;34.40;42.60;;;;;;6187377;23;20438;-77
2023/06/18 12:16:14;;;;;;;5.00;4.70;;;34.70;42.60;;;;;;6188055;23;20415;-78
2023/06/18 12:18:55;;;;;;;5.60;5.30;;;34.90;42.30;;;;;;6188705;23;20478;-76
2023/06/18 12:21:25;;;;;;;5.70;5.30;;;35.60;42.50;;;;;;6187379;23;20411;-76
2023/06/18 12:23:59;;;;;;;5.73;5.30;;;35.40;41.80;;;;;;6186573;23;20959;-78
2023/06/18 12:26:28;;;;;;;5.57;5.17;;;35.30;41.40;;;;;;6187282;23;20403;-78
2023/06/18 12:29:01;;;;;;;5.83;5.43;;;35.40;41.40;;;;;;6188434;23;20438;-80
2023/06/18 12:31:29;;;;;;;5.67;5.27;;;35.60;41.20;;;;;;6189016;23;20920;-77
2023/06/18 12:33:59;;;;;;;5.83;5.43;;;34.90;41.20;;;;;;6189261;23;20427;-76
2023/06/18 12:36:32;;;;;;;5.30;5.00;;;34.60;41.60;;;;;;6192769;23;20442;-76
2023/06/18 12:38:59;;;;;;;5.17;4.80;;;34.80;42.10;;;;;;6196403;23;20383;-77
2023/06/18 12:41:27;;;;;;;5.00;4.70;;;35.50;42.00;;;;;;6197599;23;20790;-76
2023/06/18 12:43:59;;;;;;;6.10;5.70;;;36.10;40.70;;;;;;6194877;23;20482;-76
2023/06/18 12:46:31;;;;;;;5.67;5.27;;;35.50;41.40;;;;;;6193747;23;20406;-77
2023/06/18 12:49:03;;;;;;;6.27;5.60;;;35.60;41.80;;;;;;6191550;23;20431;-77
2023/06/18 12:51:49;;;;;;;5.80;5.40;;;35.50;41.40;;;;;;6191774;23;20411;-77
2023/06/18 12:54:18;;;;;;;5.87;5.40;;;35.60;41.40;;;;;;6193331;23;20458;-77
2023/06/18 12:56:53;;;;;;;5.77;5.37;;;36.40;41.20;;;;;;6194753;23;20412;-78
2023/06/18 12:59:23;;;;;;;6.40;5.90;;;37.10;40.70;;;;;;6194225;23;20877;-76
2023/06/18 13:01:50;;;;;;;5.30;5.00;;;37.50;40.20;;;;;;6194830;23;20441;-78
2023/06/18 13:04:20;;;;;;;5.93;5.53;;;37.50;40.00;;;;;;6195447;23;20485;-77
2023/06/18 13:06:50;;;;;;;5.63;5.10;;;37.60;39.80;;;;;;6191648;23;20387;-79
2023/06/18 13:09:17;;;;;;;6.03;5.63;;;37.80;39.80;;;;;;6188516;23;20417;-78
2023/06/18 13:11:46;;;;;;;5.57;5.17;;;38.00;39.00;;;;;;6187840;23;20949;-78
2023/06/18 13:14:14;;;;;;;5.70;5.30;;;38.10;39.00;;;;;;6188563;23;20918;-79
2023/06/18 13:16:42;;;;;;;5.67;5.33;;;37.70;38.90;;;;;;6188975;23;20408;-77
2023/06/18 13:19:15;;;;;;;5.50;5.10;;;37.60;39.30;;;;;;6189872;23;20406;-79
2023/06/18 13:21:51;;;;;;;5.67;5.20;;;37.70;39.00;;;;;;6192509;23;20427;-79
2023/06/18 13:24:27;;;;;;;5.13;4.80;;;38.60;38.80;;;;;;6192192;23;20419;-77
2023/06/18 13:26:55;;;;;;;5.10;4.80;;;38.90;38.10;;;;;;6189797;23;20418;-78
2023/06/18 13:29:27;;;;;;;5.70;5.20;;;39.00;37.70;;;;;;6190737;23;20821;-79
2023/06/18 13:32:03;;;;;;;5.10;4.80;;;38.80;37.90;;;;;;6190178;23;20465;-78
2023/06/18 13:34:36;;;;;;;4.97;4.57;;;38.30;37.60;;;;;;6189556;23;20756;-78
2023/06/18 13:37:06;;;;;;;4.90;4.60;;;38.30;37.30;;;;;;6192603;23;20407;-78
2023/06/18 13:39:34;;;;;;;5.70;5.20;;;38.10;37.60;;;;;;6196945;23;20438;-77
2023/06/18 13:42:01;;;;;;;4.97;4.67;;;38.20;37.40;;;;;;6198863;23;20521;-78
2023/06/18 13:44:29;;;;;;;5.77;5.40;;;38.10;36.80;;;;;;6202184;23;20438;-78
2023/06/18 13:46:58;;;;;;;5.27;4.90;;;38.10;37.30;;;;;;6202315;23;20467;-77
2023/06/18 13:49:26;;;;;;;5.20;4.90;;;38.30;37.00;;;;;;6200654;23;20403;-76
2023/06/18 13:51:54;;;;;;;5.77;5.23;;;37.50;37.60;;;;;;6200233;23;20435;-76
2023/06/18 13:54:24;;;;;;;6.00;5.57;;;37.00;37.70;;;;;;6198304;23;20442;-77
2023/06/18 13:56:55;;;;;;;5.70;5.40;;;36.30;38.40;;;;;;6199809;23;20392;-77
2023/06/18 13:59:22;;;;;;;5.93;5.43;;;36.40;38.30;;;;;;6197158;23;20411;-77
2023/06/18 14:01:52;;;;;;;5.50;5.20;;;36.70;37.90;;;;;;6196198;23;20505;-78
2023/06/18 14:04:22;;;;;;;5.13;4.73;;;36.80;38.00;;;;;;6193034;23;20407;-76
2023/06/18 14:06:49;;;;;;;5.70;5.40;;;36.60;37.60;;;;;;6191204;23;20419;-76
2023/06/18 14:09:17;;;;;;;5.67;5.27;;;35.80;38.60;;;;;;6191369;23;20514;-76
2023/06/18 14:11:46;;;;;;;5.93;5.53;;;35.30;39.60;;;;;;6190258;23;20959;-78
2023/06/18 14:14:15;;;;;;;5.30;5.00;;;35.80;39.40;;;;;;6188499;23;20422;-77
2023/06/18 14:16:43;;;;;;;5.20;4.80;;;35.10;39.80;;;;;;6191433;23;20422;-78
2023/06/18 14:19:11;;;;;;;4.93;4.53;;;35.50;39.20;;;;;;6195191;23;20761;-77
2023/06/18 14:21:39;;;;;;;4.90;4.60;;;35.20;39.20;;;;;;6194654;23;20414;-77
2023/06/18 14:24:06;;;;;;;5.23;4.93;;;35.40;39.10;;;;;;6193057;23;20411;-77
2023/06/18 14:26:36;;;;;;;5.77;5.37;;;35.00;40.00;;;;;;6193252;23;20486;-78
2023/06/18 14:29:05;;;;;;;5.60;5.30;;;35.30;39.70;;;;;;6161704;23;20459;-77